Time;durP1;ratioP1;P1;durP2;ratioP2;P2;SDS_P1;SDS_P2;PMS_P1;PMS_P2;Temp;Humidity;BMP_temperature;BMP_pressure;BME280_temperature;BME280_humidity;BME280_pressure;Samples;Min_cycle;Max_cycle;Signal;HPM_P1;HPM_P2
2022/10/13 00:01:06;;;;;;;57.33;45.05;;;;;;;;;;6236063;23;20001;-79
2022/10/13 00:03:38;;;;;;;62.92;44.22;;;;;;;;;;6236773;23;19996;-76
2022/10/13 00:06:07;;;;;;;58.88;43.40;;;;;;;;;;6235698;23;19981;-79
2022/10/13 00:08:35;;;;;;;55.40;41.88;;;;;;;;;;6227139;23;20056;-77
2022/10/13 00:11:01;;;;;;;57.33;44.30;;;;;;;;;;6229280;23;20013;-76
2022/10/13 00:13:28;;;;;;;58.97;44.30;;;;;;;;;;6227490;23;19997;-76
2022/10/13 00:15:54;;;;;;;56.00;44.60;;;;;;;;;;6227948;23;19996;-77
2022/10/13 00:18:20;;;;;;;66.55;47.00;;;;;;;;;;6229631;23;20025;-77
2022/10/13 00:20:48;;;;;;;60.95;45.08;;;;;;;;;;6232330;23;20052;-79
2022/10/13 00:23:15;;;;;;;63.53;47.15;;;;;;;;;;6233107;23;20052;-79
2022/10/13 00:25:42;;;;;;;65.65;46.97;;;;;;;;;;6232462;23;20071;-80
2022/10/13 00:28:08;;;;;;;65.18;47.13;;;;;;;;;;6229932;23;20005;-79
2022/10/13 00:30:36;;;;;;;61.72;48.00;;;;;;;;;;6236677;23;19977;-76
2022/10/13 00:33:03;;;;;;;64.03;46.13;;;;;;;;;;6210964;23;19989;-77
2022/10/13 00:35:29;;;;;;;57.60;44.17;;;;;;;;;;6232258;23;20001;-79
2022/10/13 00:37:55;;;;;;;55.33;44.55;;;;;;;;;;6228851;23;20021;-79
2022/10/13 00:40:22;;;;;;;58.50;44.15;;;;;;;;;;6225323;23;20017;-78
2022/10/13 00:42:48;;;;;;;61.65;44.00;;;;;;;;;;6228836;23;20420;-78
2022/10/13 00:45:17;;;;;;;60.88;46.72;;;;;;;;;;6227858;23;20001;-79
2022/10/13 00:47:45;;;;;;;62.92;46.25;;;;;;;;;;6229557;23;19997;-78
2022/10/13 00:50:13;;;;;;;56.70;43.78;;;;;;;;;;6202865;23;20032;-79
2022/10/13 00:52:40;;;;;;;57.80;42.25;;;;;;;;;;6229409;23;20442;-76
2022/10/13 00:55:08;;;;;;;57.60;42.78;;;;;;;;;;6231041;23;20016;-79
2022/10/13 00:57:34;;;;;;;55.20;42.47;;;;;;;;;;6232746;23;20018;-79
2022/10/13 01:00:00;;;;;;;67.53;43.17;;;;;;;;;;6229276;23;20008;-79
2022/10/13 01:02:31;;;;;;;61.15;44.85;;;;;;;;;;6229548;23;20024;-77
2022/10/13 01:04:58;;;;;;;63.00;43.88;;;;;;;;;;6234376;23;20005;-80
2022/10/13 01:07:24;;;;;;;51.42;41.95;;;;;;;;;;6209038;23;20001;-80
2022/10/13 01:09:50;;;;;;;62.83;43.60;;;;;;;;;;6235263;23;20015;-78
2022/10/13 01:12:16;;;;;;;58.15;43.15;;;;;;;;;;6232596;23;19984;-76
2022/10/13 01:14:55;;;;;;;57.13;41.42;;;;;;;;;;6195540;23;19996;-76
2022/10/13 01:17:30;;;;;;;58.75;44.30;;;;;;;;;;6224341;23;20011;-76
2022/10/13 01:20:15;;;;;;;54.35;40.25;;;;;;;;;;6224787;23;20031;-79
2022/10/13 01:22:50;;;;;;;58.50;43.00;;;;;;;;;;6231403;23;20048;-79
2022/10/13 01:25:19;;;;;;;56.67;41.58;;;;;;;;;;6232019;23;20008;-76
2022/10/13 01:27:48;;;;;;;58.00;44.50;;;;;;;;;;6231475;23;20056;-76
2022/10/13 01:30:14;;;;;;;64.15;44.53;;;;;;;;;;6229946;23;20058;-76
2022/10/13 01:32:48;;;;;;;61.83;44.80;;;;;;;;;;6229500;23;20008;-78
2022/10/13 01:35:14;;;;;;;62.85;47.50;;;;;;;;;;6230795;23;20024;-79
2022/10/13 01:37:45;;;;;;;63.17;45.22;;;;;;;;;;6224277;23;20024;-78
2022/10/13 01:40:20;;;;;;;66.38;46.15;;;;;;;;;;6224869;23;20016;-79
2022/10/13 01:43:09;;;;;;;59.17;42.08;;;;;;;;;;6220871;23;20005;-78
2022/10/13 01:45:38;;;;;;;57.70;44.47;;;;;;;;;;6103597;23;20115;-76
2022/10/13 01:48:05;;;;;;;59.40;44.72;;;;;;;;;;6074597;23;20303;-75
2022/10/13 01:50:33;;;;;;;61.10;43.28;;;;;;;;;;6100240;23;20061;-77
2022/10/13 01:53:00;;;;;;;60.92;44.58;;;;;;;;;;6081927;23;20018;-77
2022/10/13 01:55:27;;;;;;;66.50;44.30;;;;;;;;;;6105876;23;20002;-77
2022/10/13 01:57:53;;;;;;;60.15;44.78;;;;;;;;;;6108792;23;20007;-77
2022/10/13 02:00:20;;;;;;;57.38;43.38;;;;;;;;;;6113208;23;20042;-80
2022/10/13 02:03:08;;;;;;;54.42;42.17;;;;;;;;;;6109282;23;20058;-79
2022/10/13 02:05:40;;;;;;;60.90;44.50;;;;;;;;;;6107663;23;20009;-76
2022/10/13 02:08:11;;;;;;;55.22;42.70;;;;;;;;;;6108830;23;20437;-79
2022/10/13 02:10:45;;;;;;;57.35;43.60;;;;;;;;;;6101953;23;20456;-78
2022/10/13 02:13:12;;;;;;;56.17;43.00;;;;;;;;;;6100180;23;20013;-76
2022/10/13 02:15:44;;;;;;;58.92;43.63;;;;;;;;;;6097295;23;20437;-76
2022/10/13 02:18:13;;;;;;;54.83;43.00;;;;;;;;;;6097864;23;20013;-77
2022/10/13 02:20:41;;;;;;;61.85;45.03;;;;;;;;;;6099439;23;20416;-77
2022/10/13 02:23:09;;;;;;;57.13;43.83;;;;;;;;;;6193165;23;20009;-78
2022/10/13 02:25:35;;;;;;;57.90;43.13;;;;;;;;;;6224702;23;20028;-76
2022/10/13 02:28:02;;;;;;;60.03;42.00;;;;;;;;;;6226157;23;20004;-75
2022/10/13 02:30:29;;;;;;;57.60;43.63;;;;;;;;;;6232443;23;20008;-77
2022/10/13 02:32:55;;;;;;;59.60;44.42;;;;;;;;;;6232052;23;20004;-78
2022/10/13 02:35:21;;;;;;;57.05;43.05;;;;;;;;;;6231192;23;20009;-77
2022/10/13 02:37:47;;;;;;;59.13;43.03;;;;;;;;;;6231934;23;20001;-75
2022/10/13 02:40:16;;;;;;;57.90;45.40;;;;;;;;;;6226701;23;20027;-79
2022/10/13 02:42:43;;;;;;;63.22;46.53;;;;;;;;;;6231891;23;20007;-78
2022/10/13 02:45:10;;;;;;;70.15;47.50;;;;;;;;;;6229034;23;20427;-80
2022/10/13 02:47:36;;;;;;;67.88;49.17;;;;;;;;;;6227680;23;20004;-78
2022/10/13 02:50:03;;;;;;;58.22;44.88;;;;;;;;;;6228574;23;20004;-79
2022/10/13 02:52:29;;;;;;;59.78;45.55;;;;;;;;;;6226448;23;20036;-79
2022/10/13 02:54:55;;;;;;;63.47;46.25;;;;;;;;;;6222468;23;20027;-78
2022/10/13 02:57:21;;;;;;;61.38;45.05;;;;;;;;;;6224365;23;20086;-76
2022/10/13 02:59:47;;;;;;;65.35;46.17;;;;;;;;;;6224147;23;20088;-76
2022/10/13 03:02:14;;;;;;;62.63;45.20;;;;;;;;;;6224943;23;19993;-76
2022/10/13 03:04:40;;;;;;;60.22;44.58;;;;;;;;;;6226566;23;20373;-80
2022/10/13 03:07:06;;;;;;;57.75;44.25;;;;;;;;;;6227356;23;20023;-79
2022/10/13 03:09:32;;;;;;;63.42;45.55;;;;;;;;;;6224246;23;20009;-77
2022/10/13 03:11:58;;;;;;;55.75;44.17;;;;;;;;;;6227778;23;20004;-77
2022/10/13 03:14:24;;;;;;;60.95;45.00;;;;;;;;;;6230499;23;19988;-78
2022/10/13 03:16:50;;;;;;;56.88;42.53;;;;;;;;;;6230995;23;20008;-76
2022/10/13 03:19:16;;;;;;;55.30;43.95;;;;;;;;;;6203233;23;20008;-76
2022/10/13 03:21:42;;;;;;;60.42;45.10;;;;;;;;;;6228809;23;20312;-78
2022/10/13 03:24:09;;;;;;;69.47;46.88;;;;;;;;;;6224862;23;20083;-79
2022/10/13 03:26:35;;;;;;;65.45;47.05;;;;;;;;;;6223942;23;20009;-80
2022/10/13 03:29:01;;;;;;;66.30;48.10;;;;;;;;;;6224731;23;20005;-77
2022/10/13 03:31:27;;;;;;;75.15;50.35;;;;;;;;;;6225526;23;20003;-77
2022/10/13 03:33:54;;;;;;;73.75;48.58;;;;;;;;;;6233628;23;20024;-77
2022/10/13 03:36:20;;;;;;;77.45;50.35;;;;;;;;;;6232108;23;20001;-78
2022/10/13 03:38:46;;;;;;;73.78;51.92;;;;;;;;;;6234944;23;20004;-77
2022/10/13 03:41:14;;;;;;;73.63;50.75;;;;;;;;;;6231054;23;20015;-76
2022/10/13 03:43:40;;;;;;;73.07;50.38;;;;;;;;;;6234301;23;20058;-78
2022/10/13 03:46:07;;;;;;;72.38;48.80;;;;;;;;;;6231570;23;20008;-78
2022/10/13 03:48:34;;;;;;;67.85;47.38;;;;;;;;;;6221675;23;20001;-76
2022/10/13 03:51:03;;;;;;;68.32;48.13;;;;;;;;;;6218228;23;20009;-77
2022/10/13 03:53:29;;;;;;;70.13;48.03;;;;;;;;;;6219187;23;20013;-79
2022/10/13 03:55:56;;;;;;;64.22;46.83;;;;;;;;;;6219902;23;20000;-77
2022/10/13 03:58:23;;;;;;;68.45;49.55;;;;;;;;;;6221411;23;20443;-78
2022/10/13 04:00:49;;;;;;;67.50;47.78;;;;;;;;;;6223862;23;20003;-77
2022/10/13 04:03:16;;;;;;;64.43;46.75;;;;;;;;;;6216230;23;19996;-76
2022/10/13 04:05:42;;;;;;;66.30;49.67;;;;;;;;;;6221663;23;20016;-78
2022/10/13 04:08:09;;;;;;;65.47;47.72;;;;;;;;;;6221021;23;20088;-77
2022/10/13 04:10:35;;;;;;;63.17;47.28;;;;;;;;;;6221212;23;20036;-79
2022/10/13 04:13:01;;;;;;;69.53;47.55;;;;;;;;;;6196286;23;20071;-78
2022/10/13 04:15:27;;;;;;;64.00;46.55;;;;;;;;;;6225354;23;20001;-77
2022/10/13 04:17:53;;;;;;;67.90;47.67;;;;;;;;;;6225749;23;19996;-77
2022/10/13 04:20:19;;;;;;;67.82;47.88;;;;;;;;;;6222817;23;20029;-78
2022/10/13 04:22:45;;;;;;;64.22;46.40;;;;;;;;;;6223687;23;20007;-79
2022/10/13 04:25:11;;;;;;;65.97;48.05;;;;;;;;;;6223498;23;20005;-77
2022/10/13 04:27:38;;;;;;;65.00;46.50;;;;;;;;;;6227164;23;20031;-78
2022/10/13 04:30:07;;;;;;;66.78;46.45;;;;;;;;;;6234515;23;20012;-78
2022/10/13 04:32:35;;;;;;;62.95;46.40;;;;;;;;;;6236892;23;20008;-79
2022/10/13 04:35:01;;;;;;;66.75;47.55;;;;;;;;;;6234138;23;20072;-81
2022/10/13 04:37:27;;;;;;;71.45;49.95;;;;;;;;;;6198740;23;20434;-79
2022/10/13 04:39:53;;;;;;;71.28;49.17;;;;;;;;;;6223033;23;20009;-78
2022/10/13 04:42:19;;;;;;;63.25;46.47;;;;;;;;;;6195907;23;20327;-79
2022/10/13 04:44:45;;;;;;;69.72;47.13;;;;;;;;;;6198699;23;20304;-78
2022/10/13 04:47:11;;;;;;;70.85;49.00;;;;;;;;;;6225637;23;20323;-79
2022/10/13 04:49:37;;;;;;;69.15;50.33;;;;;;;;;;6224042;23;20000;-80
2022/10/13 04:52:03;;;;;;;73.82;47.83;;;;;;;;;;6223576;23;20071;-78
2022/10/13 04:54:29;;;;;;;68.07;46.60;;;;;;;;;;6199609;23;20088;-79
2022/10/13 04:56:55;;;;;;;67.18;47.22;;;;;;;;;;6191407;23;20016;-79
2022/10/13 04:59:22;;;;;;;67.13;45.83;;;;;;;;;;6197485;23;20013;-77
2022/10/13 05:01:49;;;;;;;63.00;47.85;;;;;;;;;;6190879;23;20002;-75
2022/10/13 05:04:15;;;;;;;63.75;46.78;;;;;;;;;;6190738;23;20052;-77
2022/10/13 05:06:41;;;;;;;66.82;47.33;;;;;;;;;;6191260;23;20048;-76
2022/10/13 05:09:09;;;;;;;64.45;48.58;;;;;;;;;;6190666;23;20071;-77
2022/10/13 05:11:35;;;;;;;65.78;48.22;;;;;;;;;;6189707;23;20001;-78
2022/10/13 05:14:01;;;;;;;71.65;47.00;;;;;;;;;;6194489;23;20005;-76
2022/10/13 05:16:28;;;;;;;64.80;46.92;;;;;;;;;;6188271;23;20008;-77
2022/10/13 05:18:54;;;;;;;65.70;49.15;;;;;;;;;;6191070;23;20005;-78
2022/10/13 05:21:21;;;;;;;71.50;48.33;;;;;;;;;;6190764;23;20032;-77
2022/10/13 05:23:47;;;;;;;70.18;49.72;;;;;;;;;;6194497;23;19997;-76
2022/10/13 05:26:15;;;;;;;70.55;50.25;;;;;;;;;;6193589;23;20095;-77
2022/10/13 05:28:41;;;;;;;71.45;50.47;;;;;;;;;;6198101;23;20012;-77
2022/10/13 05:31:11;;;;;;;76.20;52.50;;;;;;;;;;6194940;23;20001;-77
2022/10/13 05:33:37;;;;;;;77.38;50.92;;;;;;;;;;6169891;23;20016;-78
2022/10/13 05:36:06;;;;;;;72.95;46.75;;;;;;;;;;6191110;23;20424;-79
2022/10/13 05:38:32;;;;;;;68.95;46.22;;;;;;;;;;6165723;23;20017;-76
2022/10/13 05:41:05;;;;;;;67.47;45.58;;;;;;;;;;6186771;23;20001;-77
2022/10/13 05:43:31;;;;;;;70.95;47.38;;;;;;;;;;6188453;23;20059;-78
2022/10/13 05:45:59;;;;;;;66.78;46.42;;;;;;;;;;6195352;23;20011;-77
2022/10/13 05:48:25;;;;;;;68.68;49.85;;;;;;;;;;6189697;23;20296;-78
2022/10/13 05:50:51;;;;;;;80.60;54.33;;;;;;;;;;6196911;23;20005;-77
2022/10/13 05:53:18;;;;;;;74.22;54.33;;;;;;;;;;6197150;23;20164;-80
2022/10/13 05:55:45;;;;;;;76.20;53.10;;;;;;;;;;6194075;23;20334;-78
2022/10/13 05:58:11;;;;;;;71.35;50.13;;;;;;;;;;6189525;23;20036;-78
2022/10/13 06:00:48;;;;;;;76.93;53.00;;;;;;;;;;6192058;23;20011;-79
2022/10/13 06:03:16;;;;;;;70.78;50.40;;;;;;;;;;6193010;23;20001;-80
2022/10/13 11:49:57;;;;;;;33.53;26.08;;;;;;;;;;5082073;27;20419;-76
2022/10/13 11:52:27;;;;;;;35.22;25.45;;;;;;;;;;5069674;28;20087;-75
2022/10/13 11:55:04;;;;;;;34.70;26.63;;;;;;;;;;5067535;28;20033;-76
2022/10/13 11:57:31;;;;;;;30.35;24.58;;;;;;;;;;5062598;28;20036;-77
2022/10/13 11:59:57;;;;;;;29.25;24.42;;;;;;;;;;5066796;28;20090;-78
2022/10/13 12:02:24;;;;;;;49.22;27.35;;;;;;;;;;5074116;28;20389;-78
2022/10/13 12:05:02;;;;;;;33.80;24.23;;;;;;;;;;5073194;28;20111;-79
2022/10/13 12:07:36;;;;;;;37.13;25.85;;;;;;;;;;5067294;28;20397;-78
2022/10/13 12:10:02;;;;;;;;;;;;;;;;;;5077116;28;20033;-76
2022/10/13 12:12:28;;;;;;;33.13;25.60;;;;;;;;;;5077543;28;19935;-78
2022/10/13 12:14:56;;;;;;;35.40;25.65;;;;;;;;;;5084190;28;20035;-78
2022/10/13 12:17:27;;;;;;;36.63;25.67;;;;;;;;;;5069514;28;20028;-77
2022/10/13 12:19:54;;;;;;;31.80;26.30;;;;;;;;;;5067077;28;20028;-77
2022/10/13 12:22:22;;;;;;;41.10;26.92;;;;;;;;;;5073005;28;20021;-77
2022/10/13 12:24:58;;;;;;;33.53;24.45;;;;;;;;;;5087639;28;20036;-78
2022/10/13 12:27:24;;;;;;;82.50;60.50;;;;;;;;;;5074066;28;20498;-79
2022/10/13 12:29:50;;;;;;;31.80;26.40;;;;;;;;;;5073669;28;20516;-78
2022/10/13 12:32:21;;;;;;;37.97;28.73;;;;;;;;;;5063843;28;20486;-78
2022/10/13 12:34:47;;;;;;;44.55;24.88;;;;;;;;;;5067232;28;20470;-79
2022/10/13 12:37:35;;;;;;;30.27;23.60;;;;;;;;;;5067152;28;20569;-78
2022/10/13 12:40:03;;;;;;;29.10;25.83;;;;;;;;;;5072554;28;20043;-78
2022/10/13 12:42:30;;;;;;;40.08;26.65;;;;;;;;;;5070131;28;20025;-78
2022/10/13 12:44:58;;;;;;;47.20;29.00;;;;;;;;;;5068521;28;20029;-78
2022/10/13 12:47:37;;;;;;;33.67;30.05;;;;;;;;;;5077047;28;20042;-78
2022/10/13 12:50:22;;;;;;;44.13;33.45;;;;;;;;;;5068024;28;20078;-78
2022/10/13 12:52:50;;;;;;;42.17;34.80;;;;;;;;;;5060499;28;20132;-78
2022/10/13 12:55:17;;;;;;;48.10;41.10;;;;;;;;;;5051294;28;20095;-77
2022/10/13 12:57:45;;;;;;;45.30;37.80;;;;;;;;;;5038277;28;20079;-77
2022/10/13 13:00:21;;;;;;;54.20;37.53;;;;;;;;;;5049372;28;20024;-77
2022/10/13 13:02:49;;;;;;;53.22;38.65;;;;;;;;;;5042914;28;20096;-77
2022/10/13 13:05:47;;;;;;;44.92;36.20;;;;;;;;;;5044280;28;20083;-78
2022/10/13 13:08:30;;;;;;;49.15;35.35;;;;;;;;;;5038225;28;20560;-80
2022/10/13 13:10:57;;;;;;;45.38;36.33;;;;;;;;;;5039901;28;20112;-79
2022/10/13 13:13:24;;;;;;;45.97;35.08;;;;;;;;;;5036117;28;20055;-79
2022/10/13 13:15:50;;;;;;;47.15;36.65;;;;;;;;;;5037230;28;20116;-79
2022/10/13 13:18:36;;;;;;;45.85;37.10;;;;;;;;;;5012744;28;20042;-79
2022/10/13 13:21:06;;;;;;;51.85;37.25;;;;;;;;;;5015520;28;20025;-79
2022/10/13 13:23:34;;;;;;;44.88;37.10;;;;;;;;;;5020508;28;20034;-79
2022/10/13 13:26:01;;;;;;;49.92;39.17;;;;;;;;;;5039058;28;20033;-79
2022/10/13 13:28:29;;;;;;;46.10;38.45;;;;;;;;;;5040461;28;20128;-79
2022/10/13 13:30:57;;;;;;;50.83;39.15;;;;;;;;;;5037630;28;20634;-79
2022/10/13 13:33:24;;;;;;;47.58;38.22;;;;;;;;;;5020169;28;20103;-79
2022/10/13 13:35:50;;;;;;;53.92;42.33;;;;;;;;;;5017302;28;20040;-79
2022/10/13 13:38:16;;;;;;;53.90;41.90;;;;;;;;;;5025602;28;20059;-79
2022/10/13 13:40:44;;;;;;;53.28;38.53;;;;;;;;;;5023184;28;20033;-79
2022/10/13 13:43:11;;;;;;;58.42;41.92;;;;;;;;;;5026450;28;20045;-80
2022/10/13 13:45:37;;;;;;;60.90;42.22;;;;;;;;;;5059941;28;20035;-80
2022/10/13 13:48:03;;;;;;;59.90;42.15;;;;;;;;;;5066726;28;20045;-80
2022/10/13 13:50:34;;;;;;;57.22;42.47;;;;;;;;;;5067302;28;20033;-80
2022/10/13 13:53:00;;;;;;;59.97;41.42;;;;;;;;;;5057755;28;20036;-79
2022/10/13 13:55:28;;;;;;;54.10;43.03;;;;;;;;;;5068565;28;20033;-79
2022/10/13 13:57:55;;;;;;;58.08;43.40;;;;;;;;;;5058379;28;20028;-79
2022/10/13 14:00:21;;;;;;;56.90;43.67;;;;;;;;;;5061245;28;20112;-80
2022/10/13 14:02:49;;;;;;;60.20;41.92;;;;;;;;;;5061684;28;20024;-81
2022/10/13 14:05:15;;;;;;;59.22;43.47;;;;;;;;;;5058734;28;20036;-79
2022/10/13 14:07:41;;;;;;;52.55;41.33;;;;;;;;;;5061509;28;20515;-80
2022/10/13 14:10:08;;;;;;;59.38;44.55;;;;;;;;;;5060569;28;20040;-80
2022/10/13 14:12:35;;;;;;;61.78;43.28;;;;;;;;;;5061918;28;20032;-80
2022/10/13 14:15:02;;;;;;;55.33;41.28;;;;;;;;;;5068561;28;20041;-80
2022/10/13 14:17:29;;;;;;;57.60;43.25;;;;;;;;;;5064944;28;20024;-80
2022/10/13 14:19:55;;;;;;;59.13;43.92;;;;;;;;;;5064242;28;20463;-79
2022/10/13 14:22:22;;;;;;;57.88;43.78;;;;;;;;;;5058305;28;20088;-80
2022/10/13 14:24:48;;;;;;;60.33;44.20;;;;;;;;;;5067954;28;20040;-80
2022/10/13 14:27:24;;;;;;;53.00;40.90;;;;;;;;;;5070665;28;20029;-80
2022/10/13 14:29:54;;;;;;;50.70;40.40;;;;;;;;;;5059925;28;20390;-80
2022/10/13 14:32:25;;;;;;;52.13;39.25;;;;;;;;;;5059575;28;20044;-79
2022/10/13 14:34:51;;;;;;;50.40;39.40;;;;;;;;;;5062804;28;20025;-80
2022/10/13 14:37:17;;;;;;;43.47;34.67;;;;;;;;;;5055290;28;20029;-80
2022/10/13 14:39:43;;;;;;;45.50;33.97;;;;;;;;;;5071464;28;20144;-80
2022/10/13 14:42:13;;;;;;;35.67;30.80;;;;;;;;;;5061922;28;20356;-80
2022/10/13 14:44:39;;;;;;;42.55;33.47;;;;;;;;;;5061834;28;20021;-80
2022/10/13 14:47:06;;;;;;;38.72;31.65;;;;;;;;;;5063817;28;20040;-80
2022/10/13 14:49:32;;;;;;;40.55;30.40;;;;;;;;;;5062921;28;20113;-80
2022/10/13 14:51:58;;;;;;;35.42;28.50;;;;;;;;;;5064840;28;20466;-80
2022/10/13 14:54:30;;;;;;;36.72;29.25;;;;;;;;;;5064369;28;20091;-80
2022/10/13 14:57:04;;;;;;;37.63;30.45;;;;;;;;;;5052050;28;20489;-79
2022/10/13 14:59:29;;;;;;;;;;;;;;;;;;5064842;28;20454;-80
2022/10/13 15:01:56;;;;;;;40.22;28.90;;;;;;;;;;5076642;28;19908;-80
2022/10/13 15:04:25;;;;;;;38.55;30.95;;;;;;;;;;5068403;28;20049;-80
2022/10/13 15:06:51;;;;;;;41.22;28.80;;;;;;;;;;5061415;28;20485;-80
2022/10/13 15:09:17;;;;;;;43.30;31.35;;;;;;;;;;5063554;28;20039;-79
2022/10/13 15:11:45;;;;;;;36.15;31.65;;;;;;;;;;5062522;28;20017;-80
2022/10/13 15:14:32;;;;;;;38.05;31.80;;;;;;;;;;5063447;28;20108;-79
2022/10/13 15:16:59;;;;;;;36.80;30.25;;;;;;;;;;5049345;28;20088;-78
2022/10/13 15:19:25;;;;;;;37.28;29.70;;;;;;;;;;5060004;28;20044;-79
2022/10/13 15:21:52;;;;;;;39.28;30.35;;;;;;;;;;5066715;28;20512;-79
2022/10/13 15:24:18;;;;;;;35.47;29.15;;;;;;;;;;5058268;28;20049;-79
2022/10/13 15:26:46;;;;;;;37.20;28.33;;;;;;;;;;5057408;28;20433;-79
2022/10/13 15:29:13;;;;;;;38.30;28.98;;;;;;;;;;5058873;28;20033;-78
2022/10/13 15:31:41;;;;;;;38.35;29.52;;;;;;;;;;5059234;28;20018;-79
2022/10/13 15:34:09;;;;;;;40.38;29.90;;;;;;;;;;5062039;28;20309;-80
2022/10/13 15:36:37;;;;;;;36.08;27.73;;;;;;;;;;5066334;28;20040;-77
2022/10/13 15:39:05;;;;;;;37.00;30.73;;;;;;;;;;5065937;28;20033;-79
2022/10/13 15:41:47;;;;;;;43.80;32.00;;;;;;;;;;5062752;28;20044;-80
2022/10/13 15:44:18;;;;;;;46.50;31.85;;;;;;;;;;5063794;28;20056;-79
2022/10/13 15:46:46;;;;;;;46.17;32.47;;;;;;;;;;5065137;28;20029;-79
2022/10/13 15:49:13;;;;;;;42.42;32.67;;;;;;;;;;5076041;28;20083;-81
2022/10/13 15:51:41;;;;;;;39.97;32.35;;;;;;;;;;5050501;28;20033;-79
2022/10/13 15:54:24;;;;;;;41.08;32.78;;;;;;;;;;5060203;28;20033;-81
2022/10/13 15:57:02;;;;;;;41.93;34.30;;;;;;;;;;5068255;28;20544;-79
2022/10/13 15:59:34;;;;;;;65.65;36.33;;;;;;;;;;5063294;28;20282;-80
2022/10/13 16:02:04;;;;;;;72.03;38.47;;;;;;;;;;5062589;28;20029;-80
2022/10/13 16:04:33;;;;;;;67.45;35.60;;;;;;;;;;5059587;28;20045;-79
2022/10/13 16:06:59;;;;;;;73.32;37.33;;;;;;;;;;5063927;28;20031;-77
2022/10/13 16:09:26;;;;;;;87.03;39.72;;;;;;;;;;5055941;28;20509;-79
2022/10/13 16:11:53;;;;;;;66.97;38.78;;;;;;;;;;5048821;28;20029;-76
2022/10/13 16:14:19;;;;;;;61.22;40.40;;;;;;;;;;5059324;28;20033;-76
2022/10/13 16:16:45;;;;;;;63.70;38.47;;;;;;;;;;5045090;28;20120;-78
2022/10/13 16:19:11;;;;;;;64.13;39.47;;;;;;;;;;5052864;28;20074;-75
2022/10/13 16:21:42;;;;;;;56.85;37.75;;;;;;;;;;5057818;28;20069;-76
2022/10/13 16:24:12;;;;;;;61.75;38.83;;;;;;;;;;5057444;28;20396;-76
2022/10/13 16:26:38;;;;;;;52.88;36.00;;;;;;;;;;5060536;28;20056;-76
2022/10/13 16:29:04;;;;;;;60.45;38.35;;;;;;;;;;5059355;28;20402;-76
2022/10/13 16:31:30;;;;;;;53.85;37.05;;;;;;;;;;5059308;28;20075;-77
2022/10/13 16:33:56;;;;;;;51.72;36.35;;;;;;;;;;5060892;28;20095;-78
2022/10/13 16:36:24;;;;;;;56.70;35.20;;;;;;;;;;5061102;28;20025;-76
2022/10/13 16:38:51;;;;;;;59.25;35.53;;;;;;;;;;5059881;28;20379;-76
2022/10/13 16:41:18;;;;;;;58.10;38.03;;;;;;;;;;5059466;28;20052;-76
2022/10/13 16:43:48;;;;;;;59.08;39.42;;;;;;;;;;5061269;28;20022;-76
2022/10/13 16:46:15;;;;;;;52.58;38.78;;;;;;;;;;5059030;28;20031;-77
2022/10/13 16:48:42;;;;;;;60.42;39.58;;;;;;;;;;5056753;28;20045;-76
2022/10/13 16:51:11;;;;;;;70.60;39.28;;;;;;;;;;5055654;28;20029;-76
2022/10/13 16:53:37;;;;;;;65.25;39.92;;;;;;;;;;5065973;28;20024;-77
2022/10/13 16:56:05;;;;;;;66.07;39.05;;;;;;;;;;5062309;28;20043;-76
2022/10/13 16:58:31;;;;;;;72.35;39.13;;;;;;;;;;5068729;28;20025;-76
2022/10/13 17:01:08;;;;;;;57.22;38.33;;;;;;;;;;5059067;28;20181;-75
2022/10/13 17:03:34;;;;;;;65.65;36.50;;;;;;;;;;5058639;28;20070;-77
2022/10/13 17:06:01;;;;;;;50.28;37.25;;;;;;;;;;5062742;28;20021;-76
2022/10/13 17:08:29;;;;;;;61.70;39.03;;;;;;;;;;5059998;28;20027;-76
2022/10/13 17:10:55;;;;;;;51.20;33.45;;;;;;;;;;5061792;28;20123;-76
2022/10/13 17:13:21;;;;;;;54.70;35.55;;;;;;;;;;5058361;28;20016;-76
2022/10/13 17:15:54;;;;;;;57.65;34.80;;;;;;;;;;5057947;28;20029;-76
2022/10/13 17:18:21;;;;;;;48.85;31.88;;;;;;;;;;5059167;28;20017;-76
2022/10/13 17:20:55;;;;;;;63.97;33.67;;;;;;;;;;5063012;28;20025;-76
2022/10/13 17:23:23;;;;;;;47.72;31.65;;;;;;;;;;5059060;28;20032;-76
2022/10/13 17:25:50;;;;;;;62.65;33.65;;;;;;;;;;5057117;28;20036;-75
2022/10/13 17:28:17;;;;;;;57.13;33.00;;;;;;;;;;5054822;28;20044;-76
2022/10/13 17:30:44;;;;;;;41.22;31.55;;;;;;;;;;5068010;28;20020;-76
2022/10/13 17:33:13;;;;;;;43.20;32.25;;;;;;;;;;5057116;28;20047;-76
2022/10/13 17:35:39;;;;;;;51.40;34.13;;;;;;;;;;5054861;28;20036;-76
2022/10/13 17:38:06;;;;;;;44.75;30.25;;;;;;;;;;5059030;28;20571;-76
2022/10/13 17:40:35;;;;;;;41.80;29.98;;;;;;;;;;5057379;28;21629;-76
2022/10/13 17:43:02;;;;;;;45.55;30.88;;;;;;;;;;5060099;28;20085;-76
2022/10/13 17:45:29;;;;;;;41.97;30.45;;;;;;;;;;5060059;28;20037;-76
2022/10/13 17:47:56;;;;;;;46.45;31.13;;;;;;;;;;5062107;28;20061;-78
2022/10/13 17:50:26;;;;;;;41.00;31.00;;;;;;;;;;5060406;28;20005;-76
2022/10/13 17:52:53;;;;;;;39.88;29.33;;;;;;;;;;5054767;28;20068;-77
2022/10/13 17:55:20;;;;;;;52.47;31.10;;;;;;;;;;5054002;28;20056;-76
2022/10/13 17:57:46;;;;;;;46.03;29.20;;;;;;;;;;5056515;28;20494;-76
2022/10/13 18:00:12;;;;;;;45.05;31.58;;;;;;;;;;5057898;28;20025;-77
2022/10/13 18:02:38;;;;;;;47.97;30.38;;;;;;;;;;5056071;28;20151;-76
2022/10/13 18:05:04;;;;;;;45.85;30.02;;;;;;;;;;5065656;28;20483;-76
2022/10/13 18:07:32;;;;;;;52.25;31.55;;;;;;;;;;5061169;28;20025;-76
2022/10/13 18:09:58;;;;;;;42.60;31.23;;;;;;;;;;5058331;28;20497;-76
2022/10/13 18:12:24;;;;;;;40.92;30.40;;;;;;;;;;5061530;28;20494;-77
2022/10/13 18:14:50;;;;;;;41.83;31.20;;;;;;;;;;5059236;28;20398;-76
2022/10/13 18:17:16;;;;;;;41.55;30.30;;;;;;;;;;5056179;28;20174;-78
2022/10/13 18:19:43;;;;;;;41.55;29.88;;;;;;;;;;5063418;28;20027;-79
2022/10/13 18:22:09;;;;;;;37.15;29.35;;;;;;;;;;5052705;28;20033;-79
2022/10/13 18:24:35;;;;;;;42.63;31.60;;;;;;;;;;5052374;28;20029;-77
2022/10/13 18:27:01;;;;;;;40.58;30.63;;;;;;;;;;5052925;28;20091;-78
2022/10/13 18:29:28;;;;;;;39.47;30.17;;;;;;;;;;5054622;28;20106;-78
2022/10/13 18:31:57;;;;;;;43.13;32.05;;;;;;;;;;5054321;28;20028;-78
2022/10/13 18:34:23;;;;;;;36.25;27.52;;;;;;;;;;5054134;28;20057;-78
2022/10/13 18:36:52;;;;;;;36.38;27.10;;;;;;;;;;5052602;28;20033;-79
2022/10/13 18:39:24;;;;;;;36.75;26.80;;;;;;;;;;5052863;28;20037;-79
2022/10/13 18:41:51;;;;;;;37.42;25.75;;;;;;;;;;5052812;28;20025;-78
2022/10/13 18:44:17;;;;;;;37.45;25.88;;;;;;;;;;5052637;28;20033;-79
2022/10/13 18:46:43;;;;;;;36.80;26.98;;;;;;;;;;5053692;28;20041;-77
2022/10/13 18:49:13;;;;;;;36.80;27.83;;;;;;;;;;5054076;28;20068;-79
2022/10/13 18:51:40;;;;;;;38.83;27.77;;;;;;;;;;5058232;28;20509;-78
2022/10/13 18:54:06;;;;;;;51.42;35.80;;;;;;;;;;5054017;28;20180;-78
2022/10/13 18:56:35;;;;;;;48.17;35.38;;;;;;;;;;5053612;28;20056;-78
2022/10/13 18:59:02;;;;;;;45.05;29.75;;;;;;;;;;5053910;28;20151;-78
2022/10/13 19:01:30;;;;;;;39.15;29.50;;;;;;;;;;5057268;28;20552;-78
2022/10/13 19:03:56;;;;;;;34.83;28.98;;;;;;;;;;5060043;28;20140;-78
2022/10/13 19:06:25;;;;;;;37.83;29.63;;;;;;;;;;5056214;28;20040;-78
2022/10/13 19:08:55;;;;;;;38.58;27.83;;;;;;;;;;5053248;28;20029;-78
2022/10/13 19:11:22;;;;;;;43.45;30.85;;;;;;;;;;5052681;28;20029;-78
2022/10/13 19:13:48;;;;;;;38.35;29.17;;;;;;;;;;5063296;28;20056;-78
2022/10/13 19:16:16;;;;;;;36.78;27.85;;;;;;;;;;5051174;28;20024;-78
2022/10/13 19:18:42;;;;;;;34.42;27.88;;;;;;;;;;5053210;28;20090;-78
2022/10/13 19:21:09;;;;;;;36.38;28.48;;;;;;;;;;5051839;28;20087;-78
2022/10/13 19:23:35;;;;;;;40.42;28.85;;;;;;;;;;5057778;28;20486;-78
2022/10/13 19:26:08;;;;;;;35.50;27.85;;;;;;;;;;5053718;28;20028;-78
2022/10/13 19:28:34;;;;;;;40.90;27.10;;;;;;;;;;5055352;28;20099;-79
2022/10/13 19:31:08;;;;;;;34.28;25.63;;;;;;;;;;5054323;28;20023;-78
2022/10/13 19:33:34;;;;;;;33.78;26.55;;;;;;;;;;5052876;28;20025;-78
2022/10/13 19:36:00;;;;;;;32.45;25.52;;;;;;;;;;5052975;28;20409;-78
2022/10/13 19:38:26;;;;;;;36.40;25.27;;;;;;;;;;5052972;28;20100;-79
2022/10/13 19:40:52;;;;;;;30.33;25.73;;;;;;;;;;5052942;28;20033;-78
2022/10/13 19:43:20;;;;;;;32.20;25.17;;;;;;;;;;5046676;28;20103;-78
2022/10/13 19:45:47;;;;;;;34.33;24.65;;;;;;;;;;5051679;28;20025;-78
2022/10/13 19:48:14;;;;;;;36.13;25.98;;;;;;;;;;5051020;28;20049;-77
2022/10/13 19:50:43;;;;;;;31.85;24.52;;;;;;;;;;5052202;28;20025;-78
2022/10/13 19:53:09;;;;;;;31.92;23.85;;;;;;;;;;5047951;28;20495;-78
2022/10/13 19:55:43;;;;;;;34.13;25.48;;;;;;;;;;5040906;28;20498;-77
2022/10/13 19:58:09;;;;;;;33.47;25.35;;;;;;;;;;5052662;28;20029;-78
2022/10/13 20:00:36;;;;;;;32.78;24.83;;;;;;;;;;5055980;28;20025;-78
2022/10/13 20:03:02;;;;;;;35.58;24.90;;;;;;;;;;5056479;28;20393;-78
2022/10/13 20:05:28;;;;;;;30.42;23.95;;;;;;;;;;5056897;28;20475;-78
2022/10/13 20:07:55;;;;;;;30.15;22.23;;;;;;;;;;5056881;28;20040;-78